sensor_id;sensor_type;location;lat;lon;timestamp;P1;durP1;ratioP1;P2;durP2;ratioP2
48925;SDS011;39838;59.938;30.642;2022-08-18T00:01:39;19.13;;;15.15;;
48925;SDS011;39838;59.938;30.642;2022-08-18T00:04:07;18.10;;;14.63;;
48925;SDS011;39838;59.938;30.642;2022-08-18T00:06:34;20.70;;;14.55;;
48925;SDS011;39838;59.938;30.642;2022-08-18T00:09:02;16.77;;;13.65;;
48925;SDS011;39838;59.938;30.642;2022-08-18T00:11:33;18.40;;;14.00;;
48925;SDS011;39838;59.938;30.642;2022-08-18T00:14:01;21.77;;;13.60;;
48925;SDS011;39838;59.938;30.642;2022-08-18T00:16:30;21.13;;;13.95;;
48925;SDS011;39838;59.938;30.642;2022-08-18T00:18:57;18.30;;;13.98;;
48925;SDS011;39838;59.938;30.642;2022-08-18T00:21:24;17.80;;;13.30;;
48925;SDS011;39838;59.938;30.642;2022-08-18T00:23:52;19.85;;;13.77;;
48925;SDS011;39838;59.938;30.642;2022-08-18T00:26:19;15.75;;;13.57;;
48925;SDS011;39838;59.938;30.642;2022-08-18T00:28:47;17.90;;;13.23;;
48925;SDS011;39838;59.938;30.642;2022-08-18T00:31:14;16.05;;;13.35;;
48925;SDS011;39838;59.938;30.642;2022-08-18T00:33:42;17.17;;;13.68;;
48925;SDS011;39838;59.938;30.642;2022-08-18T00:36:09;17.23;;;13.18;;
48925;SDS011;39838;59.938;30.642;2022-08-18T00:38:37;16.75;;;12.93;;
48925;SDS011;39838;59.938;30.642;2022-08-18T00:41:05;22.10;;;12.95;;
48925;SDS011;39838;59.938;30.642;2022-08-18T00:43:34;18.63;;;13.13;;
48925;SDS011;39838;59.938;30.642;2022-08-18T00:46:05;19.02;;;12.68;;
48925;SDS011;39838;59.938;30.642;2022-08-18T00:48:33;16.88;;;12.70;;
48925;SDS011;39838;59.938;30.642;2022-08-18T00:51:05;15.95;;;12.80;;
48925;SDS011;39838;59.938;30.642;2022-08-18T00:53:36;17.08;;;12.80;;
48925;SDS011;39838;59.938;30.642;2022-08-18T00:56:07;19.50;;;12.77;;
48925;SDS011;39838;59.938;30.642;2022-08-18T00:58:37;17.60;;;12.57;;
48925;SDS011;39838;59.938;30.642;2022-08-18T01:01:07;17.13;;;13.13;;
48925;SDS011;39838;59.938;30.642;2022-08-18T01:03:37;17.35;;;12.70;;
48925;SDS011;39838;59.938;30.642;2022-08-18T01:06:08;16.15;;;12.82;;
48925;SDS011;39838;59.938;30.642;2022-08-18T01:08:41;17.13;;;13.07;;
48925;SDS011;39838;59.938;30.642;2022-08-18T01:11:09;17.67;;;12.70;;
48925;SDS011;39838;59.938;30.642;2022-08-18T01:13:36;17.33;;;13.23;;
48925;SDS011;39838;59.938;30.642;2022-08-18T01:16:06;16.75;;;13.43;;
48925;SDS011;39838;59.938;30.642;2022-08-18T01:18:47;16.10;;;12.55;;
48925;SDS011;39838;59.938;30.642;2022-08-18T01:21:34;18.90;;;13.00;;
48925;SDS011;39838;59.938;30.642;2022-08-18T01:24:20;17.92;;;12.45;;
48925;SDS011;39838;59.938;30.642;2022-08-18T01:27:12;16.85;;;12.77;;
48925;SDS011;39838;59.938;30.642;2022-08-18T01:29:42;14.85;;;12.32;;
48925;SDS011;39838;59.938;30.642;2022-08-18T01:32:10;15.13;;;11.93;;
48925;SDS011;39838;59.938;30.642;2022-08-18T01:34:44;17.08;;;12.32;;
48925;SDS011;39838;59.938;30.642;2022-08-18T01:37:13;13.45;;;12.05;;
48925;SDS011;39838;59.938;30.642;2022-08-18T01:39:43;15.55;;;12.45;;
48925;SDS011;39838;59.938;30.642;2022-08-18T01:42:12;15.52;;;12.15;;
48925;SDS011;39838;59.938;30.642;2022-08-18T01:44:41;15.95;;;12.30;;
48925;SDS011;39838;59.938;30.642;2022-08-18T01:47:08;15.45;;;11.68;;
48925;SDS011;39838;59.938;30.642;2022-08-18T01:49:37;18.63;;;12.45;;
48925;SDS011;39838;59.938;30.642;2022-08-18T01:52:07;16.58;;;12.18;;
48925;SDS011;39838;59.938;30.642;2022-08-18T01:54:35;15.80;;;11.85;;
48925;SDS011;39838;59.938;30.642;2022-08-18T01:57:06;15.85;;;11.90;;
48925;SDS011;39838;59.938;30.642;2022-08-18T01:59:39;15.73;;;11.95;;
48925;SDS011;39838;59.938;30.642;2022-08-18T02:02:06;16.88;;;12.35;;
48925;SDS011;39838;59.938;30.642;2022-08-18T02:04:34;15.02;;;11.75;;
48925;SDS011;39838;59.938;30.642;2022-08-18T02:07:02;18.23;;;11.98;;
48925;SDS011;39838;59.938;30.642;2022-08-18T02:09:32;19.48;;;12.98;;
48925;SDS011;39838;59.938;30.642;2022-08-18T02:11:59;15.85;;;11.55;;
48925;SDS011;39838;59.938;30.642;2022-08-18T02:14:28;17.27;;;12.32;;
48925;SDS011;39838;59.938;30.642;2022-08-18T02:16:55;16.80;;;12.18;;
48925;SDS011;39838;59.938;30.642;2022-08-18T02:19:22;16.85;;;12.00;;
48925;SDS011;39838;59.938;30.642;2022-08-18T02:21:50;15.15;;;12.25;;
48925;SDS011;39838;59.938;30.642;2022-08-18T02:24:18;18.70;;;12.02;;
48925;SDS011;39838;59.938;30.642;2022-08-18T02:26:45;21.35;;;11.80;;
48925;SDS011;39838;59.938;30.642;2022-08-18T02:29:12;19.38;;;12.52;;
48925;SDS011;39838;59.938;30.642;2022-08-18T02:31:40;18.00;;;12.15;;
48925;SDS011;39838;59.938;30.642;2022-08-18T02:34:07;13.55;;;11.93;;
48925;SDS011;39838;59.938;30.642;2022-08-18T02:36:34;17.17;;;11.70;;
48925;SDS011;39838;59.938;30.642;2022-08-18T02:39:01;14.52;;;11.48;;
48925;SDS011;39838;59.938;30.642;2022-08-18T02:41:29;19.63;;;12.63;;
48925;SDS011;39838;59.938;30.642;2022-08-18T02:43:57;19.13;;;11.85;;
48925;SDS011;39838;59.938;30.642;2022-08-18T02:46:24;18.42;;;12.88;;
48925;SDS011;39838;59.938;30.642;2022-08-18T02:48:53;15.98;;;12.18;;
48925;SDS011;39838;59.938;30.642;2022-08-18T02:51:21;15.23;;;11.95;;
48925;SDS011;39838;59.938;30.642;2022-08-18T02:53:48;18.80;;;11.77;;
48925;SDS011;39838;59.938;30.642;2022-08-18T02:56:16;15.32;;;11.45;;
48925;SDS011;39838;59.938;30.642;2022-08-18T02:58:48;16.40;;;11.98;;
48925;SDS011;39838;59.938;30.642;2022-08-18T03:01:18;17.30;;;11.93;;
48925;SDS011;39838;59.938;30.642;2022-08-18T03:03:46;15.35;;;11.85;;
48925;SDS011;39838;59.938;30.642;2022-08-18T03:06:14;17.02;;;12.13;;
48925;SDS011;39838;59.938;30.642;2022-08-18T03:08:41;16.13;;;12.02;;
48925;SDS011;39838;59.938;30.642;2022-08-18T03:11:13;17.00;;;11.35;;
48925;SDS011;39838;59.938;30.642;2022-08-18T03:13:40;14.52;;;11.30;;
48925;SDS011;39838;59.938;30.642;2022-08-18T03:16:08;15.70;;;11.75;;
48925;SDS011;39838;59.938;30.642;2022-08-18T03:18:35;16.30;;;11.80;;
48925;SDS011;39838;59.938;30.642;2022-08-18T03:21:04;14.65;;;11.35;;
48925;SDS011;39838;59.938;30.642;2022-08-18T03:23:33;15.63;;;11.80;;
48925;SDS011;39838;59.938;30.642;2022-08-18T03:26:00;14.70;;;11.15;;
48925;SDS011;39838;59.938;30.642;2022-08-18T03:28:27;14.23;;;11.93;;
48925;SDS011;39838;59.938;30.642;2022-08-18T03:30:54;16.15;;;11.85;;
48925;SDS011;39838;59.938;30.642;2022-08-18T03:33:21;17.95;;;11.43;;
48925;SDS011;39838;59.938;30.642;2022-08-18T03:35:48;18.17;;;11.70;;
48925;SDS011;39838;59.938;30.642;2022-08-18T03:38:16;18.35;;;12.27;;
48925;SDS011;39838;59.938;30.642;2022-08-18T03:40:50;19.02;;;11.77;;
48925;SDS011;39838;59.938;30.642;2022-08-18T03:43:17;17.80;;;11.90;;
48925;SDS011;39838;59.938;30.642;2022-08-18T03:45:44;15.85;;;12.75;;
48925;SDS011;39838;59.938;30.642;2022-08-18T03:48:11;19.30;;;12.68;;
48925;SDS011;39838;59.938;30.642;2022-08-18T03:50:39;18.27;;;12.38;;
48925;SDS011;39838;59.938;30.642;2022-08-18T03:53:06;22.85;;;12.27;;
48925;SDS011;39838;59.938;30.642;2022-08-18T03:55:33;18.20;;;13.02;;
48925;SDS011;39838;59.938;30.642;2022-08-18T03:58:01;22.70;;;12.35;;
48925;SDS011;39838;59.938;30.642;2022-08-18T04:00:28;15.45;;;12.52;;
48925;SDS011;39838;59.938;30.642;2022-08-18T04:02:57;15.63;;;11.55;;
48925;SDS011;39838;59.938;30.642;2022-08-18T04:05:27;16.45;;;11.65;;
48925;SDS011;39838;59.938;30.642;2022-08-18T04:07:55;13.90;;;11.73;;
48925;SDS011;39838;59.938;30.642;2022-08-18T04:10:22;17.05;;;11.32;;
48925;SDS011;39838;59.938;30.642;2022-08-18T04:12:49;19.42;;;11.85;;
48925;SDS011;39838;59.938;30.642;2022-08-18T04:15:18;18.50;;;12.35;;
48925;SDS011;39838;59.938;30.642;2022-08-18T04:17:45;14.88;;;11.98;;
48925;SDS011;39838;59.938;30.642;2022-08-18T04:20:12;16.50;;;12.15;;
48925;SDS011;39838;59.938;30.642;2022-08-18T04:22:40;18.50;;;12.43;;
48925;SDS011;39838;59.938;30.642;2022-08-18T04:25:09;18.08;;;12.48;;
48925;SDS011;39838;59.938;30.642;2022-08-18T04:27:38;20.45;;;12.68;;
48925;SDS011;39838;59.938;30.642;2022-08-18T04:30:07;16.65;;;11.70;;
48925;SDS011;39838;59.938;30.642;2022-08-18T04:32:36;17.58;;;12.10;;
48925;SDS011;39838;59.938;30.642;2022-08-18T04:35:04;16.90;;;11.43;;
48925;SDS011;39838;59.938;30.642;2022-08-18T04:37:31;15.32;;;11.25;;
48925;SDS011;39838;59.938;30.642;2022-08-18T04:39:59;13.90;;;11.45;;
48925;SDS011;39838;59.938;30.642;2022-08-18T04:42:26;15.68;;;11.65;;
48925;SDS011;39838;59.938;30.642;2022-08-18T04:44:53;19.20;;;12.02;;
48925;SDS011;39838;59.938;30.642;2022-08-18T04:47:20;17.08;;;11.68;;
48925;SDS011;39838;59.938;30.642;2022-08-18T04:49:49;17.40;;;12.20;;
48925;SDS011;39838;59.938;30.642;2022-08-18T04:52:16;14.73;;;12.57;;
48925;SDS011;39838;59.938;30.642;2022-08-18T04:55:00;15.27;;;12.20;;
48925;SDS011;39838;59.938;30.642;2022-08-18T04:57:28;16.73;;;12.10;;
48925;SDS011;39838;59.938;30.642;2022-08-18T04:59:57;16.17;;;12.38;;
48925;SDS011;39838;59.938;30.642;2022-08-18T05:02:25;16.65;;;11.70;;
48925;SDS011;39838;59.938;30.642;2022-08-18T05:04:53;18.67;;;12.45;;
48925;SDS011;39838;59.938;30.642;2022-08-18T05:07:20;17.10;;;12.23;;
48925;SDS011;39838;59.938;30.642;2022-08-18T05:09:48;17.45;;;12.77;;
48925;SDS011;39838;59.938;30.642;2022-08-18T05:12:16;18.25;;;12.68;;
48925;SDS011;39838;59.938;30.642;2022-08-18T05:14:43;18.50;;;12.05;;
48925;SDS011;39838;59.938;30.642;2022-08-18T05:17:11;18.02;;;12.27;;
48925;SDS011;39838;59.938;30.642;2022-08-18T05:19:40;17.58;;;12.60;;
48925;SDS011;39838;59.938;30.642;2022-08-18T05:22:10;15.10;;;11.95;;
48925;SDS011;39838;59.938;30.642;2022-08-18T05:24:38;16.00;;;12.48;;
48925;SDS011;39838;59.938;30.642;2022-08-18T05:27:05;15.88;;;12.75;;
48925;SDS011;39838;59.938;30.642;2022-08-18T05:29:33;16.45;;;12.50;;
48925;SDS011;39838;59.938;30.642;2022-08-18T05:32:01;20.55;;;12.90;;
48925;SDS011;39838;59.938;30.642;2022-08-18T05:34:32;17.35;;;12.88;;
48925;SDS011;39838;59.938;30.642;2022-08-18T05:37:13;19.52;;;12.65;;
48925;SDS011;39838;59.938;30.642;2022-08-18T05:39:52;18.35;;;12.57;;
48925;SDS011;39838;59.938;30.642;2022-08-18T05:42:23;19.13;;;12.63;;
48925;SDS011;39838;59.938;30.642;2022-08-18T05:44:53;18.85;;;12.73;;
48925;SDS011;39838;59.938;30.642;2022-08-18T05:47:22;18.30;;;12.38;;
48925;SDS011;39838;59.938;30.642;2022-08-18T05:49:52;15.15;;;12.05;;
48925;SDS011;39838;59.938;30.642;2022-08-18T05:52:26;18.33;;;12.45;;
48925;SDS011;39838;59.938;30.642;2022-08-18T05:54:59;16.13;;;12.68;;
48925;SDS011;39838;59.938;30.642;2022-08-18T05:57:47;16.20;;;12.18;;
48925;SDS011;39838;59.938;30.642;2022-08-18T06:00:23;16.65;;;12.55;;
48925;SDS011;39838;59.938;30.642;2022-08-18T06:02:53;19.17;;;12.52;;
48925;SDS011;39838;59.938;30.642;2022-08-18T06:05:26;23.33;;;12.85;;
48925;SDS011;39838;59.938;30.642;2022-08-18T06:08:01;18.05;;;12.68;;
48925;SDS011;39838;59.938;30.642;2022-08-18T06:10:33;18.00;;;11.52;;
48925;SDS011;39838;59.938;30.642;2022-08-18T06:13:01;18.50;;;12.38;;
48925;SDS011;39838;59.938;30.642;2022-08-18T06:15:30;14.65;;;11.60;;
48925;SDS011;39838;59.938;30.642;2022-08-18T06:21:15;19.10;;;11.80;;
48925;SDS011;39838;59.938;30.642;2022-08-18T06:23:55;18.80;;;12.20;;
48925;SDS011;39838;59.938;30.642;2022-08-18T06:26:33;19.77;;;12.55;;
48925;SDS011;39838;59.938;30.642;2022-08-18T06:29:15;18.02;;;13.00;;
48925;SDS011;39838;59.938;30.642;2022-08-18T06:31:53;22.33;;;13.07;;
48925;SDS011;39838;59.938;30.642;2022-08-18T06:34:30;19.08;;;12.05;;
48925;SDS011;39838;59.938;30.642;2022-08-18T06:37:09;19.30;;;12.90;;
48925;SDS011;39838;59.938;30.642;2022-08-18T06:42:12;14.95;;;11.00;;
48925;SDS011;39838;59.938;30.642;2022-08-18T06:44:44;16.25;;;11.52;;
48925;SDS011;39838;59.938;30.642;2022-08-18T06:47:17;16.48;;;11.27;;
48925;SDS011;39838;59.938;30.642;2022-08-18T06:49:53;17.42;;;11.73;;
48925;SDS011;39838;59.938;30.642;2022-08-18T06:52:30;14.60;;;11.50;;
48925;SDS011;39838;59.938;30.642;2022-08-18T06:55:00;14.93;;;11.95;;
48925;SDS011;39838;59.938;30.642;2022-08-18T06:57:31;16.10;;;11.60;;
48925;SDS011;39838;59.938;30.642;2022-08-18T07:00:03;18.85;;;12.05;;
48925;SDS011;39838;59.938;30.642;2022-08-18T07:02:38;20.67;;;11.32;;
48925;SDS011;39838;59.938;30.642;2022-08-18T07:10:54;15.82;;;10.95;;
48925;SDS011;39838;59.938;30.642;2022-08-18T07:13:23;17.77;;;11.48;;
48925;SDS011;39838;59.938;30.642;2022-08-18T07:15:51;19.15;;;11.20;;
48925;SDS011;39838;59.938;30.642;2022-08-18T07:18:21;17.48;;;10.88;;
48925;SDS011;39838;59.938;30.642;2022-08-18T07:20:51;14.73;;;11.30;;
48925;SDS011;39838;59.938;30.642;2022-08-18T07:23:22;20.42;;;11.27;;
48925;SDS011;39838;59.938;30.642;2022-08-18T07:25:56;16.88;;;11.07;;
48925;SDS011;39838;59.938;30.642;2022-08-18T07:28:29;20.83;;;11.00;;
48925;SDS011;39838;59.938;30.642;2022-08-18T07:31:08;16.80;;;10.98;;
48925;SDS011;39838;59.938;30.642;2022-08-18T07:33:57;22.50;;;11.03;;
48925;SDS011;39838;59.938;30.642;2022-08-18T07:36:29;17.75;;;10.80;;
48925;SDS011;39838;59.938;30.642;2022-08-18T07:39:02;16.05;;;10.75;;
48925;SDS011;39838;59.938;30.642;2022-08-18T07:41:35;18.95;;;10.32;;
48925;SDS011;39838;59.938;30.642;2022-08-18T07:44:09;14.88;;;9.73;;
48925;SDS011;39838;59.938;30.642;2022-08-18T07:46:44;16.70;;;10.50;;
48925;SDS011;39838;59.938;30.642;2022-08-18T07:49:23;12.50;;;10.68;;
48925;SDS011;39838;59.938;30.642;2022-08-18T07:52:00;16.52;;;10.77;;
48925;SDS011;39838;59.938;30.642;2022-08-18T07:54:34;16.05;;;10.30;;
48925;SDS011;39838;59.938;30.642;2022-08-18T07:57:13;15.88;;;9.75;;
48925;SDS011;39838;59.938;30.642;2022-08-18T07:59:47;18.33;;;10.20;;
48925;SDS011;39838;59.938;30.642;2022-08-18T08:02:25;14.75;;;10.45;;
48925;SDS011;39838;59.938;30.642;2022-08-18T08:07:43;18.33;;;10.50;;
48925;SDS011;39838;59.938;30.642;2022-08-18T08:13:42;14.07;;;9.60;;
48925;SDS011;39838;59.938;30.642;2022-08-18T08:16:25;21.70;;;9.65;;
48925;SDS011;39838;59.938;30.642;2022-08-18T08:19:02;13.30;;;9.52;;
48925;SDS011;39838;59.938;30.642;2022-08-18T08:21:39;18.50;;;10.00;;
48925;SDS011;39838;59.938;30.642;2022-08-18T08:24:15;17.27;;;9.68;;
48925;SDS011;39838;59.938;30.642;2022-08-18T08:26:47;15.77;;;8.68;;
48925;SDS011;39838;59.938;30.642;2022-08-18T08:29:25;15.45;;;8.48;;
48925;SDS011;39838;59.938;30.642;2022-08-18T08:32:01;10.98;;;8.20;;
48925;SDS011;39838;59.938;30.642;2022-08-18T08:34:30;12.98;;;8.45;;
48925;SDS011;39838;59.938;30.642;2022-08-18T08:37:05;15.38;;;8.60;;
48925;SDS011;39838;59.938;30.642;2022-08-18T08:39:35;15.45;;;8.45;;
48925;SDS011;39838;59.938;30.642;2022-08-18T08:42:07;16.67;;;8.93;;
48925;SDS011;39838;59.938;30.642;2022-08-18T08:44:39;13.55;;;8.50;;
48925;SDS011;39838;59.938;30.642;2022-08-18T08:47:14;13.98;;;8.15;;
48925;SDS011;39838;59.938;30.642;2022-08-18T08:49:46;13.70;;;8.65;;
48925;SDS011;39838;59.938;30.642;2022-08-18T08:52:20;14.38;;;9.90;;
48925;SDS011;39838;59.938;30.642;2022-08-18T08:54:51;16.33;;;8.20;;
48925;SDS011;39838;59.938;30.642;2022-08-18T08:57:21;16.52;;;9.00;;
48925;SDS011;39838;59.938;30.642;2022-08-18T08:59:57;15.48;;;8.68;;
48925;SDS011;39838;59.938;30.642;2022-08-18T09:02:30;13.77;;;8.07;;
48925;SDS011;39838;59.938;30.642;2022-08-18T09:05:16;13.07;;;8.15;;
48925;SDS011;39838;59.938;30.642;2022-08-18T09:07:51;16.63;;;8.90;;
48925;SDS011;39838;59.938;30.642;2022-08-18T09:10:39;12.95;;;7.85;;
48925;SDS011;39838;59.938;30.642;2022-08-18T09:16:17;16.27;;;8.40;;
48925;SDS011;39838;59.938;30.642;2022-08-18T09:19:00;16.45;;;8.57;;
48925;SDS011;39838;59.938;30.642;2022-08-18T09:21:39;11.30;;;7.80;;
48925;SDS011;39838;59.938;30.642;2022-08-18T09:24:17;15.90;;;8.10;;
48925;SDS011;39838;59.938;30.642;2022-08-18T09:26:51;16.33;;;7.82;;
48925;SDS011;39838;59.938;30.642;2022-08-18T09:29:20;15.50;;;8.07;;
48925;SDS011;39838;59.938;30.642;2022-08-18T09:35:05;14.05;;;7.88;;
48925;SDS011;39838;59.938;30.642;2022-08-18T09:37:44;14.27;;;7.90;;
48925;SDS011;39838;59.938;30.642;2022-08-18T09:40:36;15.50;;;7.40;;
48925;SDS011;39838;59.938;30.642;2022-08-18T09:43:31;11.10;;;7.35;;
48925;SDS011;39838;59.938;30.642;2022-08-18T09:46:03;14.63;;;7.87;;
48925;SDS011;39838;59.938;30.642;2022-08-18T09:48:33;12.73;;;7.60;;
48925;SDS011;39838;59.938;30.642;2022-08-18T09:54:05;14.02;;;7.57;;
48925;SDS011;39838;59.938;30.642;2022-08-18T10:05:39;16.65;;;7.50;;
48925;SDS011;39838;59.938;30.642;2022-08-18T10:08:26;14.77;;;7.30;;
48925;SDS011;39838;59.938;30.642;2022-08-18T10:11:31;15.43;;;7.28;;
48925;SDS011;39838;59.938;30.642;2022-08-18T10:14:16;12.02;;;6.85;;
48925;SDS011;39838;59.938;30.642;2022-08-18T10:16:57;19.10;;;6.88;;
48925;SDS011;39838;59.938;30.642;2022-08-18T10:19:35;11.23;;;6.38;;
48925;SDS011;39838;59.938;30.642;2022-08-18T10:22:14;13.63;;;6.90;;
48925;SDS011;39838;59.938;30.642;2022-08-18T10:25:04;11.27;;;6.45;;
48925;SDS011;39838;59.938;30.642;2022-08-18T10:27:45;9.20;;;6.18;;
48925;SDS011;39838;59.938;30.642;2022-08-18T10:36:38;11.63;;;6.65;;
48925;SDS011;39838;59.938;30.642;2022-08-18T10:39:18;10.57;;;6.57;;
48925;SDS011;39838;59.938;30.642;2022-08-18T10:41:54;11.45;;;6.57;;
48925;SDS011;39838;59.938;30.642;2022-08-18T10:44:26;14.70;;;6.90;;
48925;SDS011;39838;59.938;30.642;2022-08-18T10:46:57;13.55;;;6.05;;
48925;SDS011;39838;59.938;30.642;2022-08-18T10:49:27;14.02;;;6.82;;
48925;SDS011;39838;59.938;30.642;2022-08-18T10:55:08;10.93;;;6.43;;
48925;SDS011;39838;59.938;30.642;2022-08-18T10:57:58;18.15;;;6.55;;
48925;SDS011;39838;59.938;30.642;2022-08-18T11:00:41;14.60;;;6.60;;
48925;SDS011;39838;59.938;30.642;2022-08-18T11:03:19;15.05;;;6.40;;
48925;SDS011;39838;59.938;30.642;2022-08-18T11:06:02;14.48;;;7.00;;
48925;SDS011;39838;59.938;30.642;2022-08-18T11:08:31;11.75;;;6.80;;
48925;SDS011;39838;59.938;30.642;2022-08-18T11:11:08;20.67;;;6.75;;
48925;SDS011;39838;59.938;30.642;2022-08-18T11:13:42;13.60;;;6.95;;
48925;SDS011;39838;59.938;30.642;2022-08-18T11:16:24;13.32;;;6.55;;
48925;SDS011;39838;59.938;30.642;2022-08-18T11:19:03;10.85;;;5.70;;
48925;SDS011;39838;59.938;30.642;2022-08-18T11:21:36;14.18;;;5.88;;
48925;SDS011;39838;59.938;30.642;2022-08-18T11:24:12;11.77;;;5.57;;
48925;SDS011;39838;59.938;30.642;2022-08-18T11:26:44;14.23;;;5.10;;
48925;SDS011;39838;59.938;30.642;2022-08-18T11:29:22;12.55;;;5.38;;
48925;SDS011;39838;59.938;30.642;2022-08-18T11:31:55;15.25;;;5.03;;
48925;SDS011;39838;59.938;30.642;2022-08-18T11:34:31;20.25;;;5.70;;
48925;SDS011;39838;59.938;30.642;2022-08-18T11:37:04;13.18;;;4.90;;
48925;SDS011;39838;59.938;30.642;2022-08-18T11:39:40;17.73;;;5.90;;
48925;SDS011;39838;59.938;30.642;2022-08-18T11:42:08;12.02;;;5.85;;
48925;SDS011;39838;59.938;30.642;2022-08-18T11:44:44;15.25;;;5.43;;
48925;SDS011;39838;59.938;30.642;2022-08-18T11:47:15;12.80;;;5.60;;
48925;SDS011;39838;59.938;30.642;2022-08-18T11:49:53;13.57;;;5.75;;
48925;SDS011;39838;59.938;30.642;2022-08-18T11:52:26;10.15;;;5.65;;
48925;SDS011;39838;59.938;30.642;2022-08-18T11:54:58;11.02;;;5.53;;
48925;SDS011;39838;59.938;30.642;2022-08-18T11:57:28;10.77;;;5.80;;
48925;SDS011;39838;59.938;30.642;2022-08-18T12:03:15;17.55;;;5.85;;
48925;SDS011;39838;59.938;30.642;2022-08-18T12:06:07;11.02;;;6.15;;
48925;SDS011;39838;59.938;30.642;2022-08-18T12:09:16;11.40;;;5.90;;
48925;SDS011;39838;59.938;30.642;2022-08-18T12:11:50;16.17;;;5.82;;
48925;SDS011;39838;59.938;30.642;2022-08-18T12:14:53;14.70;;;6.18;;
48925;SDS011;39838;59.938;30.642;2022-08-18T12:17:28;17.75;;;6.47;;
48925;SDS011;39838;59.938;30.642;2022-08-18T12:19:56;14.07;;;6.38;;
48925;SDS011;39838;59.938;30.642;2022-08-18T12:22:25;13.02;;;5.70;;
48925;SDS011;39838;59.938;30.642;2022-08-18T12:24:55;10.63;;;6.10;;
48925;SDS011;39838;59.938;30.642;2022-08-18T12:27:28;15.18;;;6.28;;
48925;SDS011;39838;59.938;30.642;2022-08-18T12:30:07;13.70;;;6.72;;
48925;SDS011;39838;59.938;30.642;2022-08-18T12:32:47;12.38;;;6.07;;
48925;SDS011;39838;59.938;30.642;2022-08-18T12:35:24;14.85;;;6.38;;
48925;SDS011;39838;59.938;30.642;2022-08-18T12:37:51;13.23;;;5.78;;
48925;SDS011;39838;59.938;30.642;2022-08-18T12:40:20;13.57;;;5.60;;
48925;SDS011;39838;59.938;30.642;2022-08-18T12:42:48;12.52;;;5.55;;
48925;SDS011;39838;59.938;30.642;2022-08-18T12:45:15;7.45;;;5.18;;
48925;SDS011;39838;59.938;30.642;2022-08-18T12:47:42;17.08;;;5.43;;
48925;SDS011;39838;59.938;30.642;2022-08-18T12:50:11;13.32;;;5.45;;
48925;SDS011;39838;59.938;30.642;2022-08-18T12:52:38;8.93;;;5.50;;
48925;SDS011;39838;59.938;30.642;2022-08-18T12:55:07;7.63;;;4.85;;
48925;SDS011;39838;59.938;30.642;2022-08-18T12:57:35;11.32;;;5.30;;
48925;SDS011;39838;59.938;30.642;2022-08-18T13:00:03;10.35;;;5.22;;
48925;SDS011;39838;59.938;30.642;2022-08-18T13:02:32;11.07;;;5.05;;
48925;SDS011;39838;59.938;30.642;2022-08-18T13:04:59;9.27;;;4.97;;
48925;SDS011;39838;59.938;30.642;2022-08-18T13:07:27;10.45;;;4.82;;
48925;SDS011;39838;59.938;30.642;2022-08-18T13:09:55;15.80;;;5.30;;
48925;SDS011;39838;59.938;30.642;2022-08-18T13:12:22;11.63;;;5.30;;
48925;SDS011;39838;59.938;30.642;2022-08-18T13:14:50;9.38;;;5.07;;
48925;SDS011;39838;59.938;30.642;2022-08-18T13:17:19;10.50;;;5.25;;
48925;SDS011;39838;59.938;30.642;2022-08-18T13:19:46;9.32;;;5.40;;
48925;SDS011;39838;59.938;30.642;2022-08-18T13:22:14;14.00;;;5.57;;
48925;SDS011;39838;59.938;30.642;2022-08-18T13:24:42;13.73;;;5.30;;
48925;SDS011;39838;59.938;30.642;2022-08-18T13:27:09;11.98;;;5.57;;
48925;SDS011;39838;59.938;30.642;2022-08-18T13:29:36;17.02;;;5.50;;
48925;SDS011;39838;59.938;30.642;2022-08-18T13:32:03;16.88;;;5.30;;
48925;SDS011;39838;59.938;30.642;2022-08-18T13:34:33;12.15;;;4.63;;
48925;SDS011;39838;59.938;30.642;2022-08-18T13:37:00;11.73;;;5.05;;
48925;SDS011;39838;59.938;30.642;2022-08-18T13:39:27;9.00;;;4.78;;
48925;SDS011;39838;59.938;30.642;2022-08-18T13:41:56;17.98;;;5.05;;
48925;SDS011;39838;59.938;30.642;2022-08-18T13:44:23;10.82;;;4.47;;
48925;SDS011;39838;59.938;30.642;2022-08-18T13:46:50;13.50;;;4.82;;
48925;SDS011;39838;59.938;30.642;2022-08-18T13:49:20;11.57;;;5.10;;
48925;SDS011;39838;59.938;30.642;2022-08-18T13:51:49;12.85;;;4.70;;
48925;SDS011;39838;59.938;30.642;2022-08-18T13:54:24;12.35;;;5.90;;
48925;SDS011;39838;59.938;30.642;2022-08-18T13:56:53;11.93;;;5.72;;
48925;SDS011;39838;59.938;30.642;2022-08-18T13:59:22;12.15;;;5.95;;
48925;SDS011;39838;59.938;30.642;2022-08-18T14:01:51;10.43;;;5.55;;
48925;SDS011;39838;59.938;30.642;2022-08-18T14:04:18;15.55;;;5.93;;
48925;SDS011;39838;59.938;30.642;2022-08-18T14:06:49;13.80;;;5.90;;
48925;SDS011;39838;59.938;30.642;2022-08-18T14:09:17;15.15;;;5.80;;
48925;SDS011;39838;59.938;30.642;2022-08-18T14:11:44;20.75;;;6.28;;
48925;SDS011;39838;59.938;30.642;2022-08-18T14:14:13;29.67;;;6.20;;
48925;SDS011;39838;59.938;30.642;2022-08-18T14:16:41;14.40;;;6.10;;
48925;SDS011;39838;59.938;30.642;2022-08-18T14:19:08;20.58;;;6.30;;
48925;SDS011;39838;59.938;30.642;2022-08-18T14:21:52;12.40;;;5.95;;
48925;SDS011;39838;59.938;30.642;2022-08-18T14:24:37;18.55;;;6.05;;
48925;SDS011;39838;59.938;30.642;2022-08-18T14:27:24;18.30;;;6.28;;
48925;SDS011;39838;59.938;30.642;2022-08-18T14:29:54;16.65;;;6.10;;
48925;SDS011;39838;59.938;30.642;2022-08-18T14:32:21;11.80;;;5.75;;
48925;SDS011;39838;59.938;30.642;2022-08-18T14:34:51;15.70;;;5.80;;
48925;SDS011;39838;59.938;30.642;2022-08-18T14:37:18;18.90;;;6.20;;
48925;SDS011;39838;59.938;30.642;2022-08-18T14:39:45;15.30;;;6.30;;
48925;SDS011;39838;59.938;30.642;2022-08-18T14:42:13;14.98;;;6.10;;
48925;SDS011;39838;59.938;30.642;2022-08-18T14:44:42;12.75;;;6.00;;
48925;SDS011;39838;59.938;30.642;2022-08-18T14:47:10;15.50;;;6.55;;
48925;SDS011;39838;59.938;30.642;2022-08-18T14:49:38;18.02;;;6.15;;
48925;SDS011;39838;59.938;30.642;2022-08-18T14:52:05;13.25;;;5.90;;
48925;SDS011;39838;59.938;30.642;2022-08-18T14:54:33;10.73;;;6.05;;
48925;SDS011;39838;59.938;30.642;2022-08-18T14:57:00;17.30;;;6.38;;
48925;SDS011;39838;59.938;30.642;2022-08-18T14:59:27;17.67;;;5.68;;
48925;SDS011;39838;59.938;30.642;2022-08-18T15:01:55;14.45;;;5.85;;
48925;SDS011;39838;59.938;30.642;2022-08-18T15:04:24;14.68;;;5.75;;
48925;SDS011;39838;59.938;30.642;2022-08-18T15:06:54;12.18;;;5.80;;
48925;SDS011;39838;59.938;30.642;2022-08-18T15:09:21;17.90;;;6.32;;
48925;SDS011;39838;59.938;30.642;2022-08-18T15:11:48;14.52;;;6.47;;
48925;SDS011;39838;59.938;30.642;2022-08-18T15:14:16;20.33;;;6.18;;
48925;SDS011;39838;59.938;30.642;2022-08-18T15:16:43;25.02;;;6.85;;
48925;SDS011;39838;59.938;30.642;2022-08-18T15:19:11;29.88;;;6.70;;
48925;SDS011;39838;59.938;30.642;2022-08-18T15:21:41;23.02;;;7.00;;
48925;SDS011;39838;59.938;30.642;2022-08-18T15:24:22;24.10;;;7.13;;
48925;SDS011;39838;59.938;30.642;2022-08-18T15:27:06;27.23;;;7.50;;
48925;SDS011;39838;59.938;30.642;2022-08-18T15:29:33;20.80;;;6.82;;
48925;SDS011;39838;59.938;30.642;2022-08-18T15:32:00;18.83;;;6.88;;